MSC Jordan — HPMK — position and weather

sailwx.info

Track history (hours):
 
Tides and Currents Weather Stations Pressure Air Temp Water Temp Dewpoint Dewpoint Depression Visibility Wind Speed Wind Dir Waves Ship Positions

MSC Jordan

Last reported at 2016-May-15 08:34 UTC. Time now 2016-May-26 08:46 UTC.
Position N 13°55' W 017°25'.
Warning: this ship's position is 11 days out of date.

Length 237 m; draft 10.8 m.

Type: Ship. MMSI: 355194000.

Date/timePositionNaut miles runAvg speedWind from/ knotsBaromVisibWave heightAir tempDewpointWater temp
2016-May-15 08:34N 13°55' W 017°25'1817.8
2016-May-15 07:32N 14°13' W 017°24'1717.0
2016-May-15 06:33N 14°30' W 017°24'1111.1
2016-May-15 05:33N 14°41' W 017°25'0 0.3
2016-May-15 04:29N 14°41' W 017°26'0 0.0
2016-May-15 03:25N 14°41' W 017°26'0 0.0
2016-May-15 02:28N 14°41' W 017°26'0 0.0
2016-May-15 01:25N 14°41' W 017°26'0 0.0
2016-May-15 00:25N 14°41' W 017°26'0 0.0
2016-May-14 23:28N 14°41' W 017°26'0 0.0
2016-May-14 22:28N 14°41' W 017°26'0 0.0
2016-May-14 21:31N 14°41' W 017°26'0 0.0
2016-May-14 20:28N 14°41' W 017°26'0 0.0
2016-May-14 19:31N 14°41' W 017°26'0 0.1
2016-May-14 18:33N 14°41' W 017°26'5 5.2
2016-May-14 17:33N 14°40' W 017°20'7 6.6
2016-May-14 16:33N 14°34' W 017°19'6 5.5
2016-May-14 15:33N 14°32' W 017°25'5 5.3
2016-May-14 14:31N 14°32' W 017°31'5 5.1
2016-May-14 13:29N 14°33' W 017°36'18711.0
2016-May-13 20:31N 17°40' W 017°43'61815.0
2016-May-12 03:27N 27°43' W 015°18'1415.5
2016-May-12 02:34N 27°57' W 015°16'1313.3
2016-May-12 01:33N 28°08' W 015°25'0 0.2
2016-May-12 00:32N 28°08' W 015°25'0 0.0
2016-May-11 23:31N 28°08' W 015°25'0 0.0
2016-May-11 22:33N 28°08' W 015°25'0 0.0
2016-May-11 21:33N 28°08' W 015°25'0 0.0
2016-May-11 20:33N 28°08' W 015°25'0 0.0
2016-May-11 19:26N 28°08' W 015°25'0 0.0
2016-May-11 18:31N 28°08' W 015°25'0 0.1
2016-May-11 17:34N 28°08' W 015°25'4 4.5
2016-May-11 16:34N 28°09' W 015°20'1514.8
2016-May-11 15:33N 28°23' W 015°15'1514.6
2016-May-11 14:34N 28°37' W 015°10'1514.9
2016-May-11 13:33N 28°51' W 015°05'1514.7
2016-May-11 12:34N 29°06' W 015°01'  
2016-May-07 19:14N 49°47' W 003°27'1014.4
2016-May-07 18:33N 49°52' W 003°14'1514.8
2016-May-07 17:33N 49°58' W 002°53'1616.1
2016-May-07 16:33N 50°02' W 002°29'6019.9
2016-May-07 13:33N 49°45' W 000°60'1919.2
2016-May-07 12:33N 49°38' W 000°32'1717.3
2016-May-07 11:33N 49°32' W 000°07'1111.2
2016-May-07 10:33N 49°28' E 000°09'0 0.0
2016-May-07 09:33N 49°28' E 000°09'0 0.0
2016-May-07 08:33N 49°28' E 000°09'0 0.0
2016-May-07 07:33N 49°28' E 000°09'0 0.0
2016-May-07 06:33N 49°28' E 000°09'0 0.0
2016-May-07 05:33N 49°28' E 000°09'0 0.0
2016-May-07 04:31N 49°28' E 000°09'0 0.0
2016-May-07 03:31N 49°28' E 000°09'0 0.0
2016-May-07 02:34N 49°28' E 000°09'10 9.7
2016-May-07 01:34N 49°31' W 000°05'6 6.0
2016-May-07 00:33N 49°36' W 000°11'8 7.9
2016-May-06 23:33N 49°44' W 000°12'8 8.1
2016-May-06 22:33N 49°52' W 000°11'1010.2
2016-May-06 21:33N 50°02' W 000°11'9 9.1
2016-May-06 20:33N 50°11' W 000°11'9 8.8
2016-May-06 19:34N 50°20' W 000°10'7 7.1
2016-May-06 18:33N 50°26' W 000°04'8 8.3
2016-May-06 17:33N 50°30' E 000°08'1010.0
2016-May-06 16:33N 50°33' E 000°23'3411.4
2016-May-06 13:33N 50°50' E 001°09'1010.2
2016-May-06 12:33N 50°57' E 001°21'10 9.9
2016-May-06 11:34N 51°04' E 001°32'10 9.7
2016-May-06 10:33N 51°11' E 001°42'1010.0
2016-May-06 09:33N 51°20' E 001°50'1110.9
2016-May-06 08:33N 51°31' E 001°49'1615.9
2016-May-06 07:33N 51°47' E 001°43'1312.8
2016-May-06 06:33N 51°56' E 001°30'7 7.5
2016-May-06 05:34N 51°57' E 001°18'0 0.0
2016-May-06 04:33N 51°57' E 001°18'0 0.0
2016-May-06 03:34N 51°57' E 001°18'0 0.0
2016-May-06 02:33N 51°57' E 001°18'0 0.0
2016-May-06 01:32N 51°57' E 001°18'0 0.0
2016-May-06 00:31N 51°57' E 001°18'0 0.0
2016-May-05 23:31N 51°57' E 001°18'0 0.0
2016-May-05 22:31N 51°57' E 001°18'0 0.0
2016-May-05 21:31N 51°57' E 001°18'0 0.0
2016-May-05 20:31N 51°57' E 001°18'0 0.0
2016-May-05 19:31N 51°57' E 001°18'0 0.0
2016-May-05 18:31N 51°57' E 001°18'0 0.0
2016-May-05 17:31N 51°57' E 001°18'0 0.0
2016-May-05 16:31N 51°57' E 001°18'0 0.0
2016-May-05 15:34N 51°57' E 001°18'3 3.4
2016-May-05 14:33N 51°56' E 001°23'9 9.4
2016-May-05 13:33N 51°52' E 001°37'7 6.6
2016-May-05 12:33N 51°51' E 001°48'9 9.4
2016-May-05 11:33N 51°42' E 001°50'1414.1
2016-May-05 10:33N 51°29' E 001°57'1615.6
2016-May-05 09:34N 51°21' E 002°19'  
Track history (hours):
 
Tides and Currents Weather Stations Pressure Air Temp Water Temp Dewpoint Dewpoint Depression Visibility Wind Speed Wind Dir Waves Ship Positions

MSC Jordan

Last reported at 2016-May-15 08:34 UTC. Time now 2016-May-26 08:46 UTC.
Position N 13°55' W 017°25'.
Warning: this ship's position is 11 days out of date.

Length 237 m; draft 10.8 m.

Type: Ship. MMSI: 355194000.

Date/timePositionNaut miles runAvg speedWind from/ knotsBaromVisibWave heightAir tempDewpointWater temp
2016-May-15 08:34N 13°55' W 017°25'1817.8
2016-May-15 07:32N 14°13' W 017°24'1717.0
2016-May-15 06:33N 14°30' W 017°24'1111.1
2016-May-15 05:33N 14°41' W 017°25'0 0.3
2016-May-15 04:29N 14°41' W 017°26'0 0.0
2016-May-15 03:25N 14°41' W 017°26'0 0.0
2016-May-15 02:28N 14°41' W 017°26'0 0.0
2016-May-15 01:25N 14°41' W 017°26'0 0.0
2016-May-15 00:25N 14°41' W 017°26'0 0.0
2016-May-14 23:28N 14°41' W 017°26'0 0.0
2016-May-14 22:28N 14°41' W 017°26'0 0.0
2016-May-14 21:31N 14°41' W 017°26'0 0.0
2016-May-14 20:28N 14°41' W 017°26'0 0.0
2016-May-14 19:31N 14°41' W 017°26'0 0.1
2016-May-14 18:33N 14°41' W 017°26'5 5.2
2016-May-14 17:33N 14°40' W 017°20'7 6.6
2016-May-14 16:33N 14°34' W 017°19'6 5.5
2016-May-14 15:33N 14°32' W 017°25'5 5.3
2016-May-14 14:31N 14°32' W 017°31'5 5.1
2016-May-14 13:29N 14°33' W 017°36'18711.0
2016-May-13 20:31N 17°40' W 017°43'61815.0
2016-May-12 03:27N 27°43' W 015°18'1415.5
2016-May-12 02:34N 27°57' W 015°16'1313.3
2016-May-12 01:33N 28°08' W 015°25'0 0.2
2016-May-12 00:32N 28°08' W 015°25'0 0.0
2016-May-11 23:31N 28°08' W 015°25'0 0.0
2016-May-11 22:33N 28°08' W 015°25'0 0.0
2016-May-11 21:33N 28°08' W 015°25'0 0.0
2016-May-11 20:33N 28°08' W 015°25'0 0.0
2016-May-11 19:26N 28°08' W 015°25'0 0.0
2016-May-11 18:31N 28°08' W 015°25'0 0.1
2016-May-11 17:34N 28°08' W 015°25'4 4.5
2016-May-11 16:34N 28°09' W 015°20'1514.8
2016-May-11 15:33N 28°23' W 015°15'1514.6
2016-May-11 14:34N 28°37' W 015°10'1514.9
2016-May-11 13:33N 28°51' W 015°05'1514.7
2016-May-11 12:34N 29°06' W 015°01'  
2016-May-07 19:14N 49°47' W 003°27'1014.4
2016-May-07 18:33N 49°52' W 003°14'1514.8
2016-May-07 17:33N 49°58' W 002°53'1616.1
2016-May-07 16:33N 50°02' W 002°29'6019.9
2016-May-07 13:33N 49°45' W 000°60'1919.2
2016-May-07 12:33N 49°38' W 000°32'1717.3
2016-May-07 11:33N 49°32' W 000°07'1111.2
2016-May-07 10:33N 49°28' E 000°09'0 0.0
2016-May-07 09:33N 49°28' E 000°09'0 0.0
2016-May-07 08:33N 49°28' E 000°09'0 0.0
2016-May-07 07:33N 49°28' E 000°09'0 0.0
2016-May-07 06:33N 49°28' E 000°09'0 0.0
2016-May-07 05:33N 49°28' E 000°09'0 0.0
2016-May-07 04:31N 49°28' E 000°09'0 0.0
2016-May-07 03:31N 49°28' E 000°09'0 0.0
2016-May-07 02:34N 49°28' E 000°09'10 9.7
2016-May-07 01:34N 49°31' W 000°05'6 6.0
2016-May-07 00:33N 49°36' W 000°11'8 7.9
2016-May-06 23:33N 49°44' W 000°12'8 8.1
2016-May-06 22:33N 49°52' W 000°11'1010.2
2016-May-06 21:33N 50°02' W 000°11'9 9.1
2016-May-06 20:33N 50°11' W 000°11'9 8.8
2016-May-06 19:34N 50°20' W 000°10'7 7.1
2016-May-06 18:33N 50°26' W 000°04'8 8.3
2016-May-06 17:33N 50°30' E 000°08'1010.0
2016-May-06 16:33N 50°33' E 000°23'3411.4
2016-May-06 13:33N 50°50' E 001°09'1010.2
2016-May-06 12:33N 50°57' E 001°21'10 9.9
2016-May-06 11:34N 51°04' E 001°32'10 9.7
2016-May-06 10:33N 51°11' E 001°42'1010.0
2016-May-06 09:33N 51°20' E 001°50'1110.9
2016-May-06 08:33N 51°31' E 001°49'1615.9
2016-May-06 07:33N 51°47' E 001°43'1312.8
2016-May-06 06:33N 51°56' E 001°30'7 7.5
2016-May-06 05:34N 51°57' E 001°18'0 0.0
2016-May-06 04:33N 51°57' E 001°18'0 0.0
2016-May-06 03:34N 51°57' E 001°18'0 0.0
2016-May-06 02:33N 51°57' E 001°18'0 0.0
2016-May-06 01:32N 51°57' E 001°18'0 0.0
2016-May-06 00:31N 51°57' E 001°18'0 0.0
2016-May-05 23:31N 51°57' E 001°18'0 0.0
2016-May-05 22:31N 51°57' E 001°18'0 0.0
2016-May-05 21:31N 51°57' E 001°18'0 0.0
2016-May-05 20:31N 51°57' E 001°18'0 0.0
2016-May-05 19:31N 51°57' E 001°18'0 0.0
2016-May-05 18:31N 51°57' E 001°18'0 0.0
2016-May-05 17:31N 51°57' E 001°18'0 0.0
2016-May-05 16:31N 51°57' E 001°18'0 0.0
2016-May-05 15:34N 51°57' E 001°18'3 3.4
2016-May-05 14:33N 51°56' E 001°23'9 9.4
2016-May-05 13:33N 51°52' E 001°37'7 6.6
2016-May-05 12:33N 51°51' E 001°48'9 9.4
2016-May-05 11:33N 51°42' E 001°50'1414.1
2016-May-05 10:33N 51°29' E 001°57'1615.6
2016-May-05 09:34N 51°21' E 002°19'  

Dump ship's entire track history